KSUU/SUU METAR and TAF weather

Enter ICAO airport designator
Station Type Date Time Source
KSUU METAR 2022/05/24 10:58 UTC NOAA

KSUU 241058Z AUTO 22009KT 10SM CLR 15/10 A2979 RMK AO2 SLP094 T01450095 $


Station Type Date Time Source
KSUU Decoded METAR 2022/05/24 10:58 UTC NOAA

Fairfield / Travis Air Force Base, CA, United States (KSUU) 38-16N 121-57W 22M
May 24, 2022 - 06:58 AM EDT / 2022.05.24 1058 UTC
Wind: from the SW (220 degrees) at 10 MPH (9 KT):0
Visibility: 10 mile(s):0
Sky conditions: clear
Temperature: 58.1 F (14.5 C)
Dew Point: 49.1 F (9.5 C)
Relative Humidity: 71%
Pressure (altimeter): 29.79 in. Hg (1008 hPa)
ob: KSUU 241058Z AUTO 22009KT 10SM CLR 15/10 A2979 RMK AO2 SLP094 T01450095
cycle: 11

Station Type Date Time Source
KSUU TAF 2022/05/24 11:57 UTC NOAA

TAF KSUU 241055Z 2411/2517 23010G15KT 9999 FEW250 QNH2980INS
BECMG 2415/2416 32010G15KT 9999 SKC QNH2970INS
TEMPO 2416/2420 32015G25KT
BECMG 2502/2503 23010G15KT 9999 SKC QNH2972INS TX38/2423Z TN14/2413Z

Example: see airport list